Station Historical Data
Daily Summary for January 16, 2017 Units:  English    Metric   Both
« Previous Day
Next Day »
Daily Weekly Monthly Yearly Custom
  High: Low: Average:
Temperature: 36.1 °F 18.1 °F 26.5 °F
Dew Point: 28.0 °F 15.1 °F 20.3 °F
Humidity: 91% 62% 78%
Wind Speed: 14.0mph 0.0mph 0.9mph
Wind Gust: 14.0mph - -
Wind- - SSW
Pressure: 30.42 in 30.25 in -
Precipitation: 0.00 in    
Historical Graphs
 
 
Tabular Data for January 16, 2017
Time Temperature Dew Point Pressure Wind Wind Speed Wind Gust Humidity Rainfall Rate (Hourly)
00:04 20.3 °F 17.3 °F 30.41 in Calm     88% 0.00 in
00:09 20.0 °F 16.8 °F 30.41 in Calm     87% 0.00 in
00:14 20.1 °F 17.1 °F 30.40 in Calm     88% 0.00 in
00:19 19.9 °F 16.9 °F 30.40 in Calm     88% 0.00 in
00:29 19.7 °F 16.7 °F 30.40 in Calm     88% 0.00 in
00:34 19.5 °F 16.3 °F 30.40 in Calm     87% 0.00 in
00:39 19.3 °F 16.3 °F 30.40 in Calm     88% 0.00 in
00:44 19.1 °F 16.1 °F 30.40 in Calm     88% 0.00 in
00:49 19.0 °F 16.0 °F 30.40 in Calm     88% 0.00 in
00:54 19.0 °F 16.0 °F 30.40 in Calm     88% 0.00 in
00:59 18.8 °F 15.8 °F 30.40 in Calm     88% 0.00 in
01:04 18.4 °F 15.2 °F 30.40 in Calm     87% 0.00 in
01:09 18.4 °F 15.4 °F 30.40 in Calm     88% 0.00 in
01:14 18.5 °F 15.5 °F 30.40 in Calm     88% 0.00 in
01:19 18.5 °F 15.5 °F 30.40 in Calm     88% 0.00 in
01:24 18.6 °F 15.9 °F 30.40 in Calm     89% 0.00 in
01:29 18.6 °F 15.9 °F 30.40 in Calm     89% 0.00 in
01:34 18.6 °F 15.9 °F 30.40 in Calm     89% 0.00 in
01:39 18.6 °F 15.6 °F 30.40 in Calm     88% 0.00 in
01:44 18.6 °F 15.6 °F 30.40 in Calm     88% 0.00 in
01:49 18.8 °F 16.1 °F 30.40 in Calm     89% 0.00 in
01:54 18.8 °F 16.1 °F 30.41 in Calm     89% 0.00 in
01:59 18.8 °F 16.1 °F 30.41 in Calm     89% 0.00 in
02:04 19.0 °F 16.3 °F 30.41 in Calm     89% 0.00 in
02:09 19.1 °F 16.4 °F 30.41 in Calm     89% 0.00 in
02:14 19.3 °F 16.3 °F 30.41 in Calm     88% 0.00 in
02:19 19.3 °F 16.3 °F 30.41 in Calm     88% 0.00 in
02:24 19.3 °F 16.3 °F 30.41 in Calm     88% 0.00 in
02:29 19.5 °F 16.5 °F 30.42 in Calm     88% 0.00 in
02:34 19.6 °F 16.4 °F 30.42 in Calm     87% 0.00 in
02:39 19.5 °F 16.3 °F 30.42 in Calm     87% 0.00 in
02:44 19.6 °F 16.4 °F 30.42 in Calm     87% 0.00 in
02:49 19.6 °F 16.4 °F 30.42 in Calm     87% 0.00 in
02:54 19.5 °F 16.3 °F 30.42 in Calm     87% 0.00 in
02:59 19.5 °F 16.0 °F 30.42 in Calm     86% 0.00 in
03:04 19.3 °F 15.8 °F 30.41 in Calm     86% 0.00 in
03:09 19.1 °F 15.6 °F 30.41 in Calm     86% 0.00 in
03:14 18.9 °F 15.4 °F 30.41 in Calm     86% 0.00 in
03:19 18.9 °F 15.7 °F 30.41 in Calm     87% 0.00 in
03:24 18.8 °F 15.3 °F 30.41 in Calm     86% 0.00 in
03:29 18.8 °F 15.6 °F 30.40 in Calm     87% 0.00 in
03:34 18.7 °F 15.5 °F 30.40 in Calm     87% 0.00 in
03:39 18.8 °F 15.6 °F 30.40 in Calm     87% 0.00 in
03:44 18.6 °F 15.4 °F 30.40 in Calm     87% 0.00 in
03:49 18.5 °F 15.3 °F 30.40 in Calm     87% 0.00 in
03:54 18.5 °F 15.3 °F 30.39 in Calm     87% 0.00 in
03:59 18.5 °F 15.3 °F 30.40 in Calm     87% 0.00 in
04:04 18.6 °F 15.4 °F 30.40 in Calm     87% 0.00 in
04:09 18.8 °F 15.6 °F 30.39 in Calm     87% 0.00 in
04:14 18.9 °F 15.7 °F 30.39 in Calm     87% 0.00 in
04:19 19.0 °F 15.8 °F 30.39 in Calm     87% 0.00 in
04:24 19.0 °F 15.8 °F 30.39 in Calm     87% 0.00 in
04:29 19.1 °F 15.9 °F 30.39 in Calm     87% 0.00 in
04:34 19.2 °F 16.2 °F 30.39 in Calm     88% 0.00 in
04:39 19.0 °F 15.8 °F 30.40 in Calm     87% 0.00 in
04:44 18.9 °F 15.7 °F 30.40 in Calm     87% 0.00 in
04:49 18.7 °F 15.5 °F 30.40 in Calm     87% 0.00 in
04:54 18.6 °F 15.4 °F 30.40 in Calm     87% 0.00 in
04:59 18.5 °F 15.3 °F 30.40 in Calm     87% 0.00 in
05:04 18.4 °F 15.2 °F 30.40 in Calm     87% 0.00 in
05:09 18.4 °F 15.2 °F 30.40 in Calm     87% 0.00 in
05:14 18.3 °F 15.1 °F 30.40 in Calm     87% 0.00 in
05:19 18.3 °F 15.3 °F 30.40 in Calm     88% 0.00 in
05:24 18.2 °F 15.2 °F 30.40 in Calm     88% 0.00 in
05:29 18.3 °F 15.3 °F 30.40 in Calm     88% 0.00 in
05:34 18.4 °F 15.4 °F 30.40 in Calm     88% 0.00 in
05:39 18.4 °F 15.4 °F 30.40 in Calm     88% 0.00 in
05:44 18.5 °F 15.5 °F 30.40 in Calm     88% 0.00 in
05:49 18.6 °F 15.9 °F 30.40 in Calm     89% 0.00 in
05:54 18.7 °F 16.0 °F 30.40 in Calm     89% 0.00 in
05:59 18.8 °F 16.1 °F 30.40 in Calm     89% 0.00 in
06:04 18.8 °F 16.1 °F 30.40 in Calm     89% 0.00 in
06:09 18.8 °F 16.1 °F 30.40 in Calm     89% 0.00 in
06:14 18.9 °F 16.2 °F 30.40 in Calm     89% 0.00 in
06:19 18.8 °F 16.1 °F 30.40 in Calm     89% 0.00 in
06:24 18.8 °F 16.1 °F 30.40 in Calm     89% 0.00 in
06:29 18.8 °F 15.8 °F 30.40 in Calm     88% 0.00 in
06:34 18.7 °F 15.7 °F 30.40 in Calm     88% 0.00 in
06:39 18.6 °F 15.6 °F 30.40 in Calm     88% 0.00 in
06:44 18.5 °F 15.5 °F 30.40 in Calm     88% 0.00 in
06:49 18.4 °F 15.4 °F 30.40 in Calm     88% 0.00 in
06:54 18.3 °F 15.3 °F 30.40 in Calm     88% 0.00 in
06:59 18.2 °F 15.2 °F 30.40 in Calm     88% 0.00 in
07:04 18.2 °F 15.2 °F 30.41 in Calm     88% 0.00 in
07:09 18.2 °F 15.2 °F 30.40 in Calm     88% 0.00 in
07:14 18.1 °F 15.1 °F 30.40 in Calm     88% 0.00 in
07:19 18.2 °F 15.2 °F 30.40 in Calm     88% 0.00 in
07:24 18.2 °F 15.2 °F 30.40 in Calm     88% 0.00 in
07:29 18.3 °F 15.6 °F 30.40 in Calm     89% 0.00 in
07:34 18.4 °F 15.7 °F 30.40 in Calm     89% 0.00 in
07:39 18.4 °F 15.7 °F 30.40 in Calm     89% 0.00 in
07:44 18.7 °F 16.0 °F 30.40 in SW 1.0 mph 4.0 mph 89% 0.00 in
07:49 19.2 °F 16.7 °F 30.40 in SSW 2.0 mph 4.0 mph 90% 0.00 in
07:54 19.7 °F 17.2 °F 30.40 in South 3.0 mph 5.0 mph 90% 0.00 in
07:59 20.3 °F 17.8 °F 30.40 in SSW 2.0 mph 5.0 mph 90% 0.00 in
08:04 20.8 °F 18.6 °F 30.40 in SSW 2.0 mph 6.0 mph 91% 0.00 in
08:09 21.2 °F 18.7 °F 30.40 in SSW 2.0 mph 6.0 mph 90% 0.00 in
08:14 21.6 °F 19.1 °F 30.40 in South 2.0 mph 5.0 mph 90% 0.00 in
08:19 22.0 °F 19.5 °F 30.41 in SSW 2.0 mph 6.0 mph 90% 0.00 in
08:24 22.2 °F 19.5 °F 30.41 in SSW 2.0 mph 4.0 mph 89% 0.00 in
08:29 22.5 °F 19.7 °F 30.41 in South 3.0 mph 6.0 mph 89% 0.00 in
08:34 23.4 °F 20.4 °F 30.41 in South 3.0 mph 6.0 mph 88% 0.00 in
08:39 24.3 °F 20.4 °F 30.41 in SSW 1.0 mph 4.0 mph 85% 0.00 in
08:44 24.8 °F 20.4 °F 30.41 in SSW 4.0 mph 5.0 mph 83% 0.00 in
08:49 25.1 °F 20.4 °F 30.41 in SSW 2.0 mph 5.0 mph 82% 0.00 in
08:54 25.4 °F 20.7 °F 30.40 in South 2.0 mph 6.0 mph 82% 0.00 in
08:59 25.6 °F 20.6 °F 30.41 in South 2.0 mph 6.0 mph 81% 0.00 in
09:04 26.0 °F 21.0 °F 30.41 in South 2.0 mph 5.0 mph 81% 0.00 in
09:09 26.3 °F 21.0 °F 30.41 in South 2.0 mph 4.0 mph 80% 0.00 in
09:14 26.7 °F 21.4 °F 30.41 in SSW 2.0 mph 4.0 mph 80% 0.00 in
09:19 27.3 °F 21.9 °F 30.41 in SSW 2.0 mph 4.0 mph 80% 0.00 in
09:24 27.8 °F 22.1 °F 30.41 in WSW 4.0 mph 5.0 mph 79% 0.00 in
09:29 28.1 °F 22.1 °F 30.41 in South 3.0 mph 7.0 mph 78% 0.00 in
09:34 28.3 °F 22.0 °F 30.41 in SSW 3.0 mph 7.0 mph 77% 0.00 in
09:39 28.7 °F 22.4 °F 30.41 in SSW 1.0 mph 7.0 mph 77% 0.00 in
09:44 29.0 °F 22.7 °F 30.41 in SW 4.0 mph 5.0 mph 77% 0.00 in
09:49 29.2 °F 22.6 °F 30.42 in South 4.0 mph 7.0 mph 76% 0.00 in
09:54 29.6 °F 23.0 °F 30.42 in SW 4.0 mph 6.0 mph 76% 0.00 in
09:59 30.2 °F 23.5 °F 30.42 in SSW 2.0 mph 6.0 mph 76% 0.00 in
10:04 30.4 °F 23.7 °F 30.41 in SSW 2.0 mph 5.0 mph 76% 0.00 in
10:09 30.9 °F 23.9 °F 30.41 in SSW 2.0 mph 5.0 mph 75% 0.00 in
10:14 31.4 °F 23.7 °F 30.41 in SW 3.0 mph 9.0 mph 73% 0.00 in
10:19 31.9 °F 24.2 °F 30.42 in SW 4.0 mph 9.0 mph 73% 0.00 in
10:24 32.1 °F 24.1 °F 30.41 in SW 6.0 mph 8.0 mph 72% 0.00 in
10:29 32.4 °F 24.0 °F 30.42 in SW 5.0 mph 8.0 mph 71% 0.00 in
10:34 32.7 °F 24.3 °F 30.42 in SW 5.0 mph 11.0 mph 71% 0.00 in
10:39 33.2 °F 25.1 °F 30.41 in SW 7.0 mph 8.0 mph 72% 0.00 in
10:44 33.4 °F 25.7 °F 30.42 in WSW 7.0 mph 12.0 mph 73% 0.00 in
10:49 33.3 °F 24.9 °F 30.41 in WSW 14.0 mph 14.0 mph 71% 0.00 in
10:54 33.4 °F 25.0 °F 30.41 in SSW 7.0 mph 14.0 mph 71% 0.00 in
13:40 36.1 °F 24.3 °F 30.34 in SW 4.0 mph 10.0 mph 62% 0.00 in
16:34 34.9 °F 23.2 °F 30.31 in SSW 2.0 mph 4.0 mph 62% 0.00 in
16:39 34.8 °F 23.9 °F 30.32 in SSW 2.0 mph 4.0 mph 64% 0.00 in
16:44 34.7 °F 23.8 °F 30.32 in SW 2.0 mph 5.0 mph 64% 0.00 in
16:49 34.6 °F 23.7 °F 30.31 in SSW 3.0 mph 5.0 mph 64% 0.00 in
16:54 34.4 °F 23.5 °F 30.31 in Calm   6.0 mph 64% 0.00 in
16:59 34.3 °F 23.4 °F 30.31 in SSW 3.0 mph 6.0 mph 64% 0.00 in
17:04 34.3 °F 23.4 °F 30.31 in SSW 1.0 mph 5.0 mph 64% 0.00 in
17:09 34.1 °F 23.2 °F 30.31 in SW 1.0 mph 6.0 mph 64% 0.00 in
17:14 34.1 °F 23.6 °F 30.31 in SW 1.0 mph 5.0 mph 65% 0.00 in
17:19 34.1 °F 23.6 °F 30.31 in SSW 2.0 mph 4.0 mph 65% 0.00 in
17:24 34.0 °F 23.5 °F 30.31 in SW 2.0 mph 5.0 mph 65% 0.00 in
17:29 34.0 °F 23.5 °F 30.31 in SW 1.0 mph 5.0 mph 65% 0.00 in
17:34 33.9 °F 23.7 °F 30.32 in SW 1.0 mph 4.0 mph 66% 0.00 in
17:39 33.9 °F 23.4 °F 30.32 in SW 3.0 mph 6.0 mph 65% 0.00 in
17:44 33.9 °F 23.4 °F 30.31 in SW 4.0 mph 7.0 mph 65% 0.00 in
17:49 34.0 °F 23.8 °F 30.31 in SW 3.0 mph 7.0 mph 66% 0.00 in
17:54 33.9 °F 23.7 °F 30.31 in SSW 2.0 mph 5.0 mph 66% 0.00 in
17:59 33.9 °F 24.1 °F 30.31 in SSW 4.0 mph 5.0 mph 67% 0.00 in
18:04 33.8 °F 24.0 °F 30.31 in SSW 6.0 mph 10.0 mph 67% 0.00 in
18:09 33.8 °F 24.0 °F 30.30 in South 3.0 mph 7.0 mph 67% 0.00 in
18:14 33.8 °F 23.6 °F 30.30 in SSW 4.0 mph 5.0 mph 66% 0.00 in
18:19 33.8 °F 23.6 °F 30.30 in SW 4.0 mph 7.0 mph 66% 0.00 in
18:24 33.9 °F 23.7 °F 30.30 in SW 3.0 mph 7.0 mph 66% 0.00 in
18:29 33.9 °F 23.7 °F 30.30 in SW 2.0 mph 6.0 mph 66% 0.00 in
18:34 33.9 °F 23.7 °F 30.30 in Calm   3.0 mph 66% 0.00 in
18:39 33.9 °F 23.4 °F 30.30 in SW 1.0 mph 3.0 mph 65% 0.00 in
18:44 33.9 °F 23.7 °F 30.30 in SW 1.0 mph 4.0 mph 66% 0.00 in
18:49 33.9 °F 23.7 °F 30.30 in WSW 1.0 mph 4.0 mph 66% 0.00 in
18:54 33.9 °F 23.7 °F 30.30 in Calm   1.0 mph 66% 0.00 in
18:59 33.9 °F 23.7 °F 30.30 in Calm   3.0 mph 66% 0.00 in
19:04 33.9 °F 23.7 °F 30.30 in SSW 2.0 mph 2.0 mph 66% 0.00 in
19:09 33.9 °F 23.7 °F 30.29 in Calm   3.0 mph 66% 0.00 in
19:14 33.9 °F 23.4 °F 30.29 in Calm   1.0 mph 65% 0.00 in
19:19 33.9 °F 23.4 °F 30.29 in Calm   2.0 mph 65% 0.00 in
19:24 33.9 °F 23.0 °F 30.29 in Calm     64% 0.00 in
19:29 33.9 °F 23.0 °F 30.29 in Calm     64% 0.00 in
19:34 33.9 °F 23.0 °F 30.29 in Calm     64% 0.00 in
19:39 33.9 °F 23.0 °F 30.29 in Calm     64% 0.00 in
19:44 33.8 °F 23.3 °F 30.29 in Calm     65% 0.00 in
19:49 33.8 °F 23.6 °F 30.29 in Calm     66% 0.00 in
19:54 33.8 °F 23.3 °F 30.29 in Calm     65% 0.00 in
19:59 33.9 °F 23.0 °F 30.29 in Calm     64% 0.00 in
20:04 33.9 °F 23.4 °F 30.29 in Calm     65% 0.00 in
20:09 33.9 °F 23.4 °F 30.29 in Calm     65% 0.00 in
20:14 34.0 °F 23.5 °F 30.29 in Calm     65% 0.00 in
20:19 33.9 °F 23.4 °F 30.29 in Calm     65% 0.00 in
20:24 34.0 °F 23.5 °F 30.29 in Calm     65% 0.00 in
20:29 34.1 °F 23.6 °F 30.29 in Calm     65% 0.00 in
20:34 34.1 °F 23.9 °F 30.29 in Calm   1.0 mph 66% 0.00 in
20:39 34.1 °F 24.3 °F 30.29 in Calm   1.0 mph 67% 0.00 in
20:44 34.1 °F 23.6 °F 30.28 in Calm     65% 0.00 in
20:49 34.1 °F 23.9 °F 30.29 in Calm     66% 0.00 in
20:54 34.1 °F 23.9 °F 30.28 in Calm     66% 0.00 in
20:59 34.1 °F 23.9 °F 30.28 in Calm     66% 0.00 in
21:04 34.1 °F 23.9 °F 30.28 in Calm     66% 0.00 in
21:09 34.1 °F 23.9 °F 30.28 in Calm     66% 0.00 in
21:14 34.1 °F 24.3 °F 30.28 in Calm     67% 0.00 in
21:19 34.0 °F 24.5 °F 30.28 in Calm     68% 0.00 in
21:24 34.0 °F 24.5 °F 30.28 in Calm     68% 0.00 in
21:29 34.0 °F 24.2 °F 30.28 in Calm     67% 0.00 in
21:34 34.0 °F 24.5 °F 30.28 in Calm     68% 0.00 in
21:39 33.9 °F 24.4 °F 30.28 in Calm     68% 0.00 in
21:44 33.9 °F 24.8 °F 30.28 in Calm     69% 0.00 in
21:49 34.0 °F 24.9 °F 30.28 in Calm     69% 0.00 in
21:54 34.0 °F 24.9 °F 30.27 in Calm     69% 0.00 in
21:59 34.0 °F 24.9 °F 30.27 in Calm     69% 0.00 in
22:04 34.0 °F 24.9 °F 30.27 in Calm     69% 0.00 in
22:09 34.0 °F 24.9 °F 30.27 in Calm     69% 0.00 in
22:14 34.0 °F 24.9 °F 30.27 in Calm     69% 0.00 in
22:19 34.1 °F 24.6 °F 30.26 in Calm     68% 0.00 in
22:24 34.2 °F 24.7 °F 30.26 in Calm     68% 0.00 in
22:29 34.2 °F 24.7 °F 30.26 in Calm     68% 0.00 in
22:34 34.2 °F 24.7 °F 30.26 in Calm     68% 0.00 in
22:39 34.1 °F 24.3 °F 30.26 in Calm     67% 0.00 in
22:44 34.1 °F 24.3 °F 30.26 in Calm     67% 0.00 in
22:49 34.1 °F 24.6 °F 30.26 in Calm     68% 0.00 in
22:54 34.1 °F 24.6 °F 30.26 in Calm     68% 0.00 in
22:59 34.2 °F 25.4 °F 30.26 in Calm     70% 0.00 in
23:04 34.0 °F 25.6 °F 30.26 in Calm     71% 0.00 in
23:09 34.0 °F 25.9 °F 30.26 in SSW 1.0 mph 1.0 mph 72% 0.00 in
23:14 33.9 °F 26.2 °F 30.26 in Calm   2.0 mph 73% 0.00 in
23:19 33.7 °F 26.3 °F 30.25 in Calm   2.0 mph 74% 0.00 in
23:24 33.7 °F 26.0 °F 30.25 in Calm     73% 0.00 in
23:29 33.6 °F 26.8 °F 30.25 in Calm     76% 0.00 in
23:34 33.4 °F 27.0 °F 30.25 in Calm     77% 0.00 in
23:39 33.3 °F 27.2 °F 30.25 in Calm     78% 0.00 in
23:44 33.3 °F 27.8 °F 30.25 in Calm     80% 0.00 in
23:49 33.2 °F 27.4 °F 30.25 in Calm     79% 0.00 in
23:54 33.2 °F 27.4 °F 30.25 in Calm     79% 0.00 in
23:59 33.2 °F 28.0 °F 30.25 in Calm     81% 0.00 in
Buffalo, New York, USA
Compliments of Weather Underground - 2.25 mb